Archival Weather

Chicago O'Hare International

Chicago, Illinois (KORD)

Report from: Friday, May 26, 2023 12:51 AM CDT
Current time: Monday, June 17, 2024 6:10 AM CDT

Current weather – Weather history – Daily summaries
Weather forecast

Temperature8.3°C (46.9°F)
Wind chill6.4°C (43.6°F)
Dew point1.7°C (35.1°F)
Winds 6 kts (3.1 m/s, 6.9 mph) North-Northeast (20°)
Visibility10 mi. (16.1 km)
Clouds Sky clear
Altimeter30.28 in.Hg (1025 mB)
Relative humidity63 %
Density altitude-1,118 ft. (-341 m)
Sea-level pressure102.6 kPa (1026 mB, 30.29 in.Hg)
Max temp last 6 hours12.8°C (55.0°F)
Min temp last 6 hours7.8°C (46.0°F)
Max temp last 24 hours16.7°C (62.1°F)
Min temp last 24 hours7.8°C (46.0°F)
Remarks Automated weather observing station with precipitation discriminator
Pressure falling more quickly
Flight conditions Visual Meteorological Conditions
Raw dataKORD 260551Z 02006KT 10SM CLR 08/02 A3028 RMK AO2 SLP256 T00830017 10128 20078 401670078 58001
An error has occurred. This application may no longer respond until reloaded. Reload 🗙